This is the latest recevied weather packets stored in our database for station/object YO2MAS-13. If no packets are shown the sender has not sent any weather packets the latest 10 day(s).
| Time | Temp. | Humidity | Pressure | Rain* | Wind** | Luminosity | Snow |
|---|---|---|---|---|---|---|---|
| 1777039179 | 21.11° C | 47% | 1016.1 hPa | - | - | - | - |
| 1777038279 | 20.56° C | 49% | 1016.3 hPa | - | - | - | - |
| 1777037381 | 20° C | 49% | 1016.4 hPa | - | - | - | - |
| 1777036479 | 20° C | 50% | 1016.6 hPa | - | - | - | - |
| 1777035579 | 21.11° C | 45% | 1016.7 hPa | - | - | - | - |
| 1777034679 | 22.78° C | 45% | 1016.8 hPa | - | - | - | - |
| 1777033779 | 20.56° C | 49% | 1017.1 hPa | - | - | - | - |
| 1777032879 | 19.44° C | 53% | 1017.3 hPa | - | - | - | - |
| 1777031979 | 21.11° C | 49% | 1017.4 hPa | - | - | - | - |
| 1777031079 | 18.89° C | 55% | 1017.8 hPa | - | - | - | - |
| 1777030179 | 20° C | 55% | 1017.7 hPa | - | - | - | - |
| 1777029279 | 19.44° C | 55% | 1017.9 hPa | - | - | - | - |
| 1777028379 | 19.44° C | 53% | 1018 hPa | - | - | - | - |
| 1777027479 | 18.89° C | 54% | 1018 hPa | - | - | - | - |
| 1777026579 | 18.89° C | 50% | 1017.9 hPa | - | - | - | - |
| 1777025679 | 20.56° C | 51% | 1017.8 hPa | - | - | - | - |
| 1777024779 | 20° C | 52% | 1018 hPa | - | - | - | - |
| 1777023879 | 20.56° C | 49% | 1018.1 hPa | - | - | - | - |
| 1777022981 | 20.56° C | 49% | 1018 hPa | - | - | - | - |
| 1777022079 | 20° C | 54% | 1018.1 hPa | - | - | - | - |
| 1777021178 | 20° C | 53% | 1018.2 hPa | - | - | - | - |
| 1777020277 | 19.44° C | 57% | 1018.2 hPa | - | - | - | - |
| 1777019419 | 18.33° C | 62% | 1018.4 hPa | - | - | - | - |
| 1777019377 | 18.33° C | 62% | 1018.4 hPa | - | - | - | - |
| 1777018757 | 17.78° C | 64% | 1018.4 hPa | - | - | - | - |
* Rain since midnight (hover to see other rain measurements)
** Current wind speed in m/s (hover to see current wind gust speed)